Time;durP1;ratioP1;P1;durP2;ratioP2;P2;SDS_P1;SDS_P2;PMS_P1;PMS_P2;Temp;Humidity;BMP_temperature;BMP_pressure;BME280_temperature;BME280_humidity;BME280_pressure;Samples;Min_cycle;Max_cycle;Signal;HPM_P1;HPM_P2
2023/09/19 00:01:08;;;;;;;1.40;1.30;;;24.50;50.10;;;;;;4985998;28;21359;-63
2023/09/19 00:03:37;;;;;;;1.50;1.40;;;24.40;50.00;;;;;;4985677;28;20464;-64
2023/09/19 00:06:15;;;;;;;1.50;1.40;;;24.50;50.10;;;;;;4986534;28;20460;-62
2023/09/19 00:08:44;;;;;;;1.37;1.27;;;24.50;50.10;;;;;;4986270;28;20484;-65
2023/09/19 00:11:10;;;;;;;1.40;1.30;;;24.50;50.10;;;;;;4969390;28;20798;-63
2023/09/19 00:13:36;;;;;;;1.47;1.37;;;24.50;50.10;;;;;;4978388;28;20518;-63
2023/09/19 00:16:08;;;;;;;3.23;1.40;;;24.50;50.10;;;;;;4986108;28;20478;-64
2023/09/19 00:18:34;;;;;;;1.43;1.30;;;24.50;50.10;;;;;;4985865;28;20358;-62
2023/09/19 00:21:00;;;;;;;1.40;1.30;;;24.40;50.00;;;;;;4989743;28;20563;-62
2023/09/19 00:23:26;;;;;;;1.40;1.30;;;24.40;50.00;;;;;;4986159;28;20465;-65
2023/09/19 00:25:52;;;;;;;1.40;1.30;;;24.40;49.90;;;;;;4965531;28;20227;-65
2023/09/19 00:28:19;;;;;;;1.30;1.20;;;24.40;50.00;;;;;;4967916;28;20465;-62
2023/09/19 00:30:49;;;;;;;1.40;1.30;;;24.50;50.00;;;;;;4971253;28;20764;-63
2023/09/19 00:33:16;;;;;;;1.60;1.50;;;24.40;49.90;;;;;;4987356;28;20515;-63
2023/09/19 00:35:53;;;;;;;1.67;1.43;;;24.40;49.90;;;;;;4982607;28;20464;-66
2023/09/19 00:38:22;;;;;;;1.50;1.40;;;24.50;50.00;;;;;;4983623;28;20480;-67
2023/09/19 00:40:48;;;;;;;1.37;1.27;;;24.50;50.00;;;;;;4978859;28;20508;-67
2023/09/19 00:43:14;;;;;;;1.30;1.20;;;24.40;49.90;;;;;;4983108;28;21007;-66
2023/09/19 00:45:45;;;;;;;1.60;1.50;;;24.50;50.00;;;;;;4979974;28;20465;-63
2023/09/19 00:48:11;;;;;;;1.20;1.10;;;24.50;49.80;;;;;;4981363;28;20285;-67
2023/09/19 00:50:41;;;;;;;1.50;1.40;;;24.40;49.90;;;;;;4975725;28;20497;-67
2023/09/19 00:53:08;;;;;;;1.30;1.20;;;24.40;49.80;;;;;;4982411;28;20547;-66
2023/09/19 00:55:37;;;;;;;1.40;1.30;;;24.40;49.80;;;;;;4981725;28;20477;-65
2023/09/19 00:58:03;;;;;;;2.03;1.50;;;24.50;49.90;;;;;;4986620;28;20572;-65
2023/09/19 01:00:29;;;;;;;1.30;1.20;;;24.40;49.80;;;;;;4979605;28;22961;-64
2023/09/19 01:02:54;;;;;;;1.47;1.37;;;24.40;49.70;;;;;;4980050;28;20227;-68
2023/09/19 01:05:20;;;;;;;1.13;1.03;;;24.40;49.90;;;;;;4977780;28;20449;-65
2023/09/19 01:07:48;;;;;;;1.70;1.37;;;24.40;49.70;;;;;;4983450;28;20223;-67
2023/09/19 01:10:17;;;;;;;3.33;1.30;;;24.40;49.70;;;;;;4981364;28;20252;-66
2023/09/19 01:13:10;;;;;;;1.40;1.30;;;24.40;49.70;;;;;;4983346;28;20469;-65
2023/09/19 01:15:36;;;;;;;1.63;1.53;;;24.40;49.70;;;;;;4981912;28;20507;-66
2023/09/19 01:18:40;;;;;;;1.67;1.33;;;24.40;49.70;;;;;;4972130;28;20485;-62
2023/09/19 01:21:18;;;;;;;1.20;1.10;;;24.40;49.70;;;;;;4986198;28;20219;-68
2023/09/19 01:24:07;;;;;;;1.30;1.20;;;24.40;49.70;;;;;;4990833;28;20560;-63
2023/09/19 01:27:10;;;;;;;2.20;1.30;;;24.40;49.70;;;;;;4983685;28;20519;-66
2023/09/19 01:29:44;;;;;;;1.60;1.10;;;24.40;49.70;;;;;;4989088;28;20507;-68
2023/09/19 01:32:13;;;;;;;1.47;1.37;;;24.40;49.60;;;;;;4983185;28;20626;-66
2023/09/19 01:34:53;;;;;;;1.80;1.33;;;24.40;49.60;;;;;;4980602;28;20480;-67
2023/09/19 01:37:25;;;;;;;1.30;1.20;;;24.40;49.60;;;;;;4983320;28;20487;-63
2023/09/19 01:40:08;;;;;;;1.27;1.17;;;24.40;49.60;;;;;;4979853;28;20487;-63
2023/09/19 01:43:05;;;;;;;1.20;1.10;;;24.40;49.50;;;;;;4981850;28;20461;-65
2023/09/19 01:45:55;;;;;;;1.50;1.40;;;24.40;49.50;;;;;;4982269;28;20588;-66
2023/09/19 01:48:55;;;;;;;1.33;1.23;;;24.40;49.50;;;;;;4963987;28;20606;-68
2023/09/19 01:51:37;;;;;;;1.17;1.07;;;24.40;49.50;;;;;;4980151;28;20563;-65
2023/09/19 01:54:08;;;;;;;1.40;1.30;;;24.40;49.50;;;;;;4981152;28;20979;-68
2023/09/19 01:56:45;;;;;;;0.97;0.93;;;24.40;49.50;;;;;;4982142;28;20659;-66
2023/09/19 01:59:15;;;;;;;1.40;1.30;;;24.40;49.50;;;;;;4983211;28;21048;-65
2023/09/19 02:01:44;;;;;;;1.17;1.07;;;24.40;49.50;;;;;;4982666;28;20477;-64
2023/09/19 02:04:10;;;;;;;1.93;1.30;;;24.40;49.40;;;;;;4980173;28;20457;-67
2023/09/19 02:06:40;;;;;;;1.30;1.20;;;24.40;49.30;;;;;;4981807;28;20474;-65
2023/09/19 02:09:05;;;;;;;1.43;1.33;;;24.40;49.30;;;;;;4986075;28;20226;-64
2023/09/19 02:11:31;;;;;;;1.30;1.20;;;24.40;49.30;;;;;;4987241;28;20461;-64
2023/09/19 02:13:57;;;;;;;1.17;1.07;;;24.40;49.30;;;;;;4988648;28;20223;-64
2023/09/19 02:16:23;;;;;;;1.43;1.00;;;24.40;49.30;;;;;;4985851;28;20227;-67
2023/09/19 02:18:49;;;;;;;1.23;1.13;;;24.40;49.20;;;;;;4985066;28;20477;-64
2023/09/19 02:21:16;;;;;;;2.00;1.20;;;24.40;49.20;;;;;;4983065;28;20227;-64
2023/09/19 02:23:42;;;;;;;2.07;1.37;;;24.40;49.20;;;;;;4985374;28;20460;-65
2023/09/19 02:26:08;;;;;;;1.20;1.10;;;24.40;49.10;;;;;;4984779;28;20475;-64
2023/09/19 02:28:33;;;;;;;1.40;1.20;;;24.40;49.00;;;;;;4986121;28;20226;-64
2023/09/19 02:30:59;;;;;;;1.20;1.10;;;24.40;49.10;;;;;;4987297;28;20220;-63
2023/09/19 02:33:25;;;;;;;1.50;1.40;;;24.40;49.10;;;;;;4987137;28;20231;-68
2023/09/19 02:35:57;;;;;;;1.57;1.30;;;24.40;48.90;;;;;;4986430;28;20235;-63
2023/09/19 02:38:24;;;;;;;2.07;1.50;;;24.40;48.70;;;;;;4984603;28;20239;-68
2023/09/19 02:40:50;;;;;;;1.03;0.93;;;24.40;48.60;;;;;;4985653;28;21520;-68
2023/09/19 02:43:17;;;;;;;1.13;1.00;;;24.40;48.60;;;;;;4985510;28;20938;-64
2023/09/19 02:45:42;;;;;;;1.23;1.10;;;24.40;48.60;;;;;;4984844;28;20457;-65
2023/09/19 02:48:08;;;;;;;1.30;1.20;;;24.30;48.50;;;;;;4987016;28;20460;-64
2023/09/19 02:50:34;;;;;;;1.20;1.10;;;24.40;48.60;;;;;;4984979;28;21417;-65
2023/09/19 02:52:59;;;;;;;1.70;1.03;;;24.40;48.60;;;;;;4984643;28;20223;-65
2023/09/19 02:55:25;;;;;;;1.40;1.30;;;24.30;48.50;;;;;;4980728;28;20254;-66
2023/09/19 02:57:54;;;;;;;1.40;1.30;;;24.40;48.60;;;;;;4986116;28;20698;-64
2023/09/19 03:00:21;;;;;;;1.33;1.23;;;24.30;48.50;;;;;;4979923;28;20231;-67
2023/09/19 03:02:53;;;;;;;1.60;1.33;;;24.30;48.60;;;;;;4987154;28;20566;-66
2023/09/19 03:05:19;;;;;;;1.37;1.27;;;24.40;48.60;;;;;;4983066;28;21041;-63
2023/09/19 03:07:50;;;;;;;1.40;1.30;;;24.30;48.50;;;;;;4984344;28;21173;-64
2023/09/19 03:10:20;;;;;;;1.30;1.20;;;24.30;48.50;;;;;;4985376;28;20465;-64
2023/09/19 03:12:50;;;;;;;1.20;1.10;;;24.30;48.50;;;;;;4984589;28;20831;-64
2023/09/19 03:15:16;;;;;;;1.37;1.27;;;24.30;48.50;;;;;;4982823;28;20468;-63
2023/09/19 03:17:47;;;;;;;1.47;1.20;;;24.30;48.50;;;;;;4990087;28;20538;-67
2023/09/19 03:20:13;;;;;;;1.20;1.10;;;24.30;49.00;;;;;;4990120;28;20488;-65
2023/09/19 03:22:42;;;;;;;1.30;1.20;;;24.30;48.50;;;;;;4990850;28;20542;-68
2023/09/19 03:25:07;;;;;;;1.80;1.30;;;24.30;48.50;;;;;;4987137;28;20456;-64
2023/09/19 03:27:36;;;;;;;1.83;1.33;;;24.30;48.50;;;;;;4988080;28;20471;-64
2023/09/19 03:30:08;;;;;;;1.20;1.10;;;24.30;48.50;;;;;;4988000;28;20979;-67
2023/09/19 03:32:43;;;;;;;1.20;1.10;;;24.30;48.50;;;;;;4989653;28;20458;-63
2023/09/19 03:35:11;;;;;;;1.70;1.60;;;24.30;48.50;;;;;;4988593;28;20467;-63
2023/09/19 03:37:36;;;;;;;2.67;1.30;;;24.40;48.60;;;;;;4987223;28;20548;-65
2023/09/19 03:40:04;;;;;;;1.00;0.90;;;24.40;48.60;;;;;;4985770;28;20472;-67
2023/09/19 03:42:31;;;;;;;1.30;1.20;;;24.40;48.60;;;;;;4988797;28;20227;-67
2023/09/19 03:44:57;;;;;;;1.40;1.30;;;24.30;48.50;;;;;;4987241;28;20456;-67
2023/09/19 03:47:22;;;;;;;1.47;1.03;;;24.30;48.50;;;;;;4987362;28;20468;-67
2023/09/19 03:49:48;;;;;;;1.20;1.10;;;24.30;48.50;;;;;;4988262;28;21224;-66
2023/09/19 03:52:15;;;;;;;1.27;1.10;;;24.30;48.50;;;;;;4986060;28;20234;-66
2023/09/19 03:54:41;;;;;;;1.30;1.20;;;24.30;48.50;;;;;;4984808;28;20258;-65
2023/09/19 03:57:07;;;;;;;1.30;1.20;;;24.30;49.20;;;;;;4985625;28;20547;-68
2023/09/19 03:59:32;;;;;;;2.57;1.50;;;24.30;48.50;;;;;;4991779;28;20373;-65
2023/09/19 04:01:58;;;;;;;1.03;0.97;;;24.30;48.50;;;;;;4988805;28;20730;-67
2023/09/19 04:04:25;;;;;;;1.10;0.97;;;24.30;48.70;;;;;;4987538;28;20243;-69
2023/09/19 04:06:51;;;;;;;1.60;1.40;;;24.30;48.50;;;;;;4986895;28;20678;-66
2023/09/19 04:09:16;;;;;;;1.30;1.20;;;24.30;48.50;;;;;;4973805;28;20468;-67
2023/09/19 04:11:42;;;;;;;1.40;1.13;;;24.30;48.50;;;;;;4964805;28;20473;-67
2023/09/19 04:14:07;;;;;;;2.70;1.20;;;24.30;48.50;;;;;;4982171;28;20256;-74
2023/09/19 04:16:33;;;;;;;1.40;1.30;;;24.30;48.50;;;;;;4987778;28;20733;-67
2023/09/19 04:18:58;;;;;;;1.50;1.10;;;24.40;48.60;;;;;;4989360;28;20234;-62
2023/09/19 04:21:24;;;;;;;1.40;1.30;;;24.40;48.60;;;;;;4976939;28;20227;-72
2023/09/19 04:23:49;;;;;;;1.37;1.10;;;24.40;48.30;;;;;;4984446;28;20290;-62
2023/09/19 04:26:16;;;;;;;1.70;1.40;;;24.40;48.00;;;;;;4985138;28;20273;-68
2023/09/19 04:28:43;;;;;;;1.20;1.10;;;24.40;47.90;;;;;;4976743;28;20563;-63
2023/09/19 04:31:11;;;;;;;1.53;1.13;;;24.40;47.70;;;;;;4983525;28;20465;-62
2023/09/19 04:33:37;;;;;;;1.57;1.47;;;24.40;47.70;;;;;;4981250;28;20469;-62
2023/09/19 04:36:05;;;;;;;1.47;1.20;;;24.40;47.50;;;;;;4982978;28;20496;-63
2023/09/19 04:38:30;;;;;;;2.10;1.33;;;24.40;47.30;;;;;;4983042;28;20236;-65
2023/09/19 04:40:59;;;;;;;3.13;1.40;;;24.40;47.20;;;;;;4988656;28;20467;-64
2023/09/19 04:43:25;;;;;;;1.23;1.10;;;24.40;47.00;;;;;;4997055;28;20223;-66
2023/09/19 04:45:55;;;;;;;1.30;1.20;;;24.40;46.90;;;;;;4993445;28;23658;-67
2023/09/19 04:48:22;;;;;;;2.10;1.30;;;24.40;47.00;;;;;;4997174;28;20498;-69
2023/09/19 04:50:49;;;;;;;1.43;1.30;;;24.40;46.80;;;;;;4985626;28;20992;-71
2023/09/19 04:53:14;;;;;;;1.40;1.17;;;24.40;46.60;;;;;;4987735;28;20493;-66
2023/09/19 04:55:40;;;;;;;3.33;1.30;;;24.40;46.60;;;;;;4988694;28;20866;-69
2023/09/19 04:58:05;;;;;;;2.37;1.30;;;24.40;46.50;;;;;;4987020;28;20216;-72
2023/09/19 05:00:35;;;;;;;1.70;1.50;;;24.40;46.40;;;;;;4988041;28;20228;-68
2023/09/19 05:03:00;;;;;;;1.23;1.10;;;24.40;46.40;;;;;;4989774;28;20611;-68
2023/09/19 05:05:26;;;;;;;2.37;1.20;;;24.40;46.50;;;;;;4989505;28;20456;-67
2023/09/19 05:07:54;;;;;;;1.80;1.70;;;24.40;46.50;;;;;;4988759;28;20230;-62
2023/09/19 05:10:20;;;;;;;1.30;1.20;;;24.40;46.50;;;;;;4986731;28;20270;-62
2023/09/19 05:12:47;;;;;;;1.60;1.50;;;24.40;46.30;;;;;;4987737;28;20900;-63
2023/09/19 05:15:17;;;;;;;1.80;1.40;;;24.40;46.20;;;;;;4981309;28;20560;-60
2023/09/19 05:17:48;;;;;;;1.50;1.40;;;24.40;46.10;;;;;;4986494;28;21029;-65
2023/09/19 05:20:16;;;;;;;2.07;1.47;;;24.40;46.10;;;;;;4988666;28;21078;-62
2023/09/19 05:22:43;;;;;;;1.30;1.20;;;24.40;45.90;;;;;;4989285;28;21075;-64
2023/09/19 05:25:09;;;;;;;1.53;1.10;;;24.40;46.00;;;;;;4985702;28;20464;-68
2023/09/19 05:27:35;;;;;;;3.73;1.40;;;24.40;45.90;;;;;;4987386;28;20469;-63
2023/09/19 05:30:00;;;;;;;3.30;1.20;;;24.40;45.80;;;;;;4989660;28;20476;-66
2023/09/19 05:32:26;;;;;;;1.50;1.40;;;24.40;45.80;;;;;;4990430;28;20239;-68
2023/09/19 05:34:53;;;;;;;2.00;1.27;;;24.40;45.70;;;;;;4989936;28;20238;-68
2023/09/19 05:37:19;;;;;;;2.40;1.30;;;24.40;45.80;;;;;;4987850;28;20215;-69
2023/09/19 05:39:44;;;;;;;1.77;1.40;;;24.40;45.60;;;;;;4986047;28;20499;-63
2023/09/19 05:42:10;;;;;;;2.00;1.60;;;24.40;45.50;;;;;;4987704;28;20235;-63
2023/09/19 05:44:36;;;;;;;2.67;1.13;;;24.40;45.30;;;;;;4986233;28;20308;-70
2023/09/19 05:47:02;;;;;;;2.57;1.50;;;24.40;45.20;;;;;;4989766;28;20609;-66
2023/09/19 05:49:28;;;;;;;2.13;1.10;;;24.40;45.20;;;;;;4988804;28;20233;-64
2023/09/19 05:51:55;;;;;;;1.73;1.30;;;24.40;45.10;;;;;;4989400;28;20802;-64
2023/09/19 05:54:20;;;;;;;1.47;1.30;;;24.40;45.10;;;;;;4982364;28;20235;-69
2023/09/19 05:56:47;;;;;;;1.73;1.33;;;24.40;45.00;;;;;;4982405;28;20461;-66
2023/09/19 05:59:14;;;;;;;2.40;1.20;;;24.40;44.90;;;;;;4975604;28;20240;-63
2023/09/19 06:01:39;;;;;;;1.20;1.10;;;24.30;44.80;;;;;;4983882;28;20472;-64
2023/09/19 06:04:05;;;;;;;2.13;1.40;;;24.40;44.80;;;;;;4989016;28;21166;-71
2023/09/19 06:06:30;;;;;;;2.10;1.30;;;24.40;44.70;;;;;;4989281;28;20230;-67
2023/09/19 06:08:57;;;;;;;1.43;1.33;;;24.30;44.70;;;;;;4988772;28;20224;-64
2023/09/19 06:11:26;;;;;;;1.50;1.33;;;24.40;44.70;;;;;;4987737;28;20241;-64
2023/09/19 06:13:53;;;;;;;1.70;1.10;;;24.30;44.60;;;;;;4988034;28;20445;-66
2023/09/19 06:16:19;;;;;;;2.47;1.40;;;24.40;44.70;;;;;;4987131;28;22026;-65
2023/09/19 06:18:45;;;;;;;1.90;1.40;;;24.40;44.60;;;;;;4987453;28;20487;-67
2023/09/19 06:21:11;;;;;;;1.40;1.30;;;24.30;44.50;;;;;;4988975;28;21087;-65
2023/09/19 06:23:36;;;;;;;2.27;1.77;;;24.30;44.40;;;;;;4988411;28;20309;-63
2023/09/19 06:26:03;;;;;;;1.87;1.67;;;24.30;44.40;;;;;;4981766;28;20215;-70
2023/09/19 06:28:28;;;;;;;1.50;1.10;;;24.30;44.40;;;;;;4984082;28;20243;-68
2023/09/19 06:30:55;;;;;;;5.83;1.60;;;24.30;44.30;;;;;;4981078;28;20552;-64
2023/09/19 06:33:21;;;;;;;2.00;1.57;;;24.30;44.30;;;;;;4986516;28;20703;-64
2023/09/19 06:35:47;;;;;;;1.53;1.20;;;24.40;44.50;;;;;;4986216;28;20495;-68
2023/09/19 06:38:15;;;;;;;2.47;1.40;;;24.30;44.30;;;;;;4987646;28;20465;-68
2023/09/19 06:40:42;;;;;;;2.00;1.50;;;24.30;44.20;;;;;;4985254;28;20468;-67
2023/09/19 06:43:09;;;;;;;1.60;1.37;;;24.30;44.20;;;;;;4990095;28;20470;-70
2023/09/19 06:45:35;;;;;;;3.47;1.33;;;24.30;44.20;;;;;;4987381;28;20469;-66
2023/09/19 06:48:02;;;;;;;1.97;1.30;;;24.30;44.20;;;;;;4987717;28;20469;-63
2023/09/19 06:50:30;;;;;;;4.03;1.50;;;24.30;44.20;;;;;;4983789;28;20216;-64
2023/09/19 06:52:57;;;;;;;2.00;1.30;;;24.30;44.10;;;;;;4994885;28;21324;-68
2023/09/19 06:55:31;;;;;;;1.40;1.20;;;24.30;44.20;;;;;;4992733;28;20538;-67
2023/09/19 06:57:57;;;;;;;2.40;1.47;;;24.30;44.10;;;;;;4995189;28;20544;-65
2023/09/19 07:00:23;;;;;;;1.70;1.20;;;24.30;44.10;;;;;;4990022;28;20460;-67
2023/09/19 07:02:56;;;;;;;2.30;1.10;;;24.30;44.10;;;;;;4991031;28;20250;-67
2023/09/19 07:05:21;;;;;;;1.90;1.50;;;24.30;44.20;;;;;;4990851;28;20468;-64
2023/09/19 07:07:47;;;;;;;1.50;1.40;;;24.30;44.10;;;;;;4990917;28;20801;-69
2023/09/19 07:10:14;;;;;;;2.47;1.50;;;24.30;44.10;;;;;;4990462;28;20253;-65
2023/09/19 07:12:41;;;;;;;2.13;1.00;;;24.30;44.10;;;;;;4988598;28;20292;-66
2023/09/19 07:15:06;;;;;;;1.37;1.20;;;24.30;44.20;;;;;;4991176;28;20504;-67
2023/09/19 07:17:33;;;;;;;1.40;1.30;;;24.30;44.20;;;;;;4992147;28;20564;-69
2023/09/19 07:19:58;;;;;;;1.30;1.13;;;24.30;44.20;;;;;;4991708;28;20234;-70
2023/09/19 07:22:25;;;;;;;1.37;1.10;;;24.30;44.20;;;;;;4988983;28;20469;-64
2023/09/19 07:24:51;;;;;;;2.63;1.20;;;24.30;44.20;;;;;;4993623;28;20227;-64
2023/09/19 07:27:17;;;;;;;1.50;1.40;;;24.30;44.20;;;;;;4989162;28;20466;-70
2023/09/19 07:29:43;;;;;;;2.80;1.30;;;24.30;44.20;;;;;;4986404;28;20473;-71
2023/09/19 07:32:10;;;;;;;1.40;1.30;;;24.40;44.30;;;;;;4992517;28;20855;-64
2023/09/19 07:34:35;;;;;;;1.70;1.00;;;24.30;44.20;;;;;;4990383;28;20219;-70
2023/09/19 07:37:02;;;;;;;1.30;1.20;;;24.30;44.30;;;;;;4992213;28;20473;-65
2023/09/19 07:39:28;;;;;;;2.77;1.30;;;24.30;44.30;;;;;;4992517;28;20255;-71
2023/09/19 07:41:54;;;;;;;1.43;1.23;;;24.30;44.30;;;;;;4986999;28;20464;-63
2023/09/19 07:44:19;;;;;;;2.97;1.30;;;24.30;44.30;;;;;;4990091;28;20223;-64
2023/09/19 07:46:45;;;;;;;1.40;1.30;;;24.30;44.20;;;;;;4988307;28;20230;-66
2023/09/19 07:49:11;;;;;;;1.37;1.10;;;24.30;44.20;;;;;;4988868;28;20235;-66
2023/09/19 07:51:36;;;;;;;1.40;1.30;;;24.30;44.20;;;;;;4990332;28;20245;-67
2023/09/19 07:54:02;;;;;;;1.90;1.27;;;24.30;44.20;;;;;;4991276;28;20854;-64
2023/09/19 07:56:28;;;;;;;1.20;1.10;;;24.30;44.30;;;;;;4991915;28;21090;-64
2023/09/19 07:58:53;;;;;;;2.23;1.30;;;24.30;44.30;;;;;;4989536;28;20313;-64
2023/09/19 08:01:19;;;;;;;1.20;1.10;;;24.40;44.30;;;;;;4989451;28;20273;-67
2023/09/19 08:03:45;;;;;;;2.53;1.40;;;24.40;44.40;;;;;;4988780;28;20286;-69
2023/09/19 08:06:10;;;;;;;1.40;1.20;;;24.40;44.30;;;;;;4989223;28;20223;-64
2023/09/19 08:08:40;;;;;;;2.60;1.20;;;24.40;44.40;;;;;;4989981;28;20456;-65
2023/09/19 08:11:12;;;;;;;1.30;1.20;;;24.40;44.40;;;;;;4991611;28;20231;-65
2023/09/19 08:13:43;;;;;;;1.30;1.20;;;24.40;44.40;;;;;;4987948;28;20464;-70
2023/09/19 08:16:14;;;;;;;1.73;1.00;;;24.30;44.30;;;;;;4989482;28;20558;-64
2023/09/19 08:18:40;;;;;;;1.60;1.20;;;24.40;44.30;;;;;;4990680;28;20511;-65
2023/09/19 08:21:11;;;;;;;3.70;1.30;;;24.30;44.30;;;;;;4989245;28;20497;-68
2023/09/19 08:23:38;;;;;;;1.70;1.27;;;24.30;44.30;;;;;;4987806;28;20228;-70
2023/09/19 08:26:07;;;;;;;1.77;1.10;;;24.30;44.30;;;;;;4988215;28;20457;-68
2023/09/19 08:28:33;;;;;;;1.30;1.20;;;24.30;44.30;;;;;;4989960;28;20473;-65
2023/09/19 08:31:08;;;;;;;1.93;1.00;;;24.40;44.40;;;;;;4989929;28;20514;-70
2023/09/19 08:33:35;;;;;;;1.50;1.20;;;24.30;44.30;;;;;;4986669;28;20899;-71
2023/09/19 08:36:04;;;;;;;1.37;1.10;;;24.40;44.40;;;;;;4991182;28;20559;-66
2023/09/19 08:38:34;;;;;;;1.20;1.07;;;24.30;44.30;;;;;;4987874;28;20508;-66
2023/09/19 08:41:00;;;;;;;1.60;1.30;;;24.40;44.50;;;;;;4986243;28;20470;-65
2023/09/19 08:43:26;;;;;;;1.60;1.50;;;24.30;44.20;;;;;;4990012;28;20491;-65
2023/09/19 08:46:12;;;;;;;1.70;1.40;;;24.30;44.20;;;;;;4989359;28;20457;-66
2023/09/19 08:48:49;;;;;;;1.47;1.30;;;24.30;44.20;;;;;;4988173;28;20477;-64
2023/09/19 08:51:26;;;;;;;1.10;1.00;;;24.30;44.10;;;;;;4986164;28;20986;-67
2023/09/19 08:54:00;;;;;;;1.70;1.23;;;24.30;44.10;;;;;;4990117;28;20527;-65
2023/09/19 08:56:28;;;;;;;1.40;1.27;;;24.30;44.10;;;;;;4988550;28;20552;-65
2023/09/19 08:58:59;;;;;;;2.43;1.43;;;24.40;44.10;;;;;;4986089;28;20465;-70
2023/09/19 09:01:28;;;;;;;1.47;1.30;;;24.30;44.10;;;;;;4989270;28;20892;-67
2023/09/19 09:03:55;;;;;;;1.20;0.93;;;24.40;44.10;;;;;;4990398;28;20465;-65
2023/09/19 09:06:21;;;;;;;1.23;1.13;;;24.30;44.00;;;;;;4987870;28;20468;-64
2023/09/19 09:08:47;;;;;;;1.97;1.17;;;24.40;44.10;;;;;;4989834;28;20569;-64
2023/09/19 09:11:14;;;;;;;1.67;1.33;;;24.30;44.00;;;;;;4988482;28;20464;-66
2023/09/19 09:13:41;;;;;;;1.17;1.00;;;24.30;44.00;;;;;;4988559;28;20488;-69
2023/09/19 09:16:07;;;;;;;1.80;1.10;;;24.40;44.10;;;;;;4985788;28;20561;-70
2023/09/19 09:18:33;;;;;;;1.70;1.30;;;24.40;44.10;;;;;;4987935;28;20490;-64
2023/09/19 09:20:58;;;;;;;1.70;1.40;;;24.30;44.00;;;;;;4988871;28;20456;-64
2023/09/19 09:23:28;;;;;;;2.37;1.30;;;24.40;44.00;;;;;;4988136;28;20277;-68
2023/09/19 09:25:56;;;;;;;1.17;1.07;;;24.40;44.00;;;;;;4988013;28;20237;-64
2023/09/19 09:28:24;;;;;;;1.70;1.07;;;24.30;44.10;;;;;;4988643;28;20451;-67
2023/09/19 09:30:52;;;;;;;1.30;1.10;;;24.40;44.00;;;;;;4989277;28;20465;-67
2023/09/19 09:33:18;;;;;;;1.37;1.10;;;24.40;44.00;;;;;;4989283;28;20465;-65
2023/09/19 09:35:52;;;;;;;1.40;1.13;;;24.40;44.00;;;;;;4987545;28;21329;-64
2023/09/19 09:38:25;;;;;;;1.20;1.10;;;24.40;44.00;;;;;;4988306;28;20237;-71
2023/09/19 09:43:28;;;;;;;1.60;1.37;;;24.40;43.90;;;;;;4987315;28;20468;-64
2023/09/19 09:49:18;;;;;;;1.40;1.20;;;24.40;44.00;;;;;;4988496;28;20483;-64
2023/09/19 09:51:57;;;;;;;2.50;1.20;;;24.40;43.90;;;;;;4989075;28;20857;-69
2023/09/19 09:54:23;;;;;;;1.23;1.13;;;24.40;43.90;;;;;;4987824;28;20948;-63
2023/09/19 09:57:23;;;;;;;1.57;1.00;;;24.40;43.90;;;;;;4989754;28;20473;-64
2023/09/19 10:00:16;;;;;;;1.40;1.30;;;24.40;43.90;;;;;;4989544;28;20481;-69
2023/09/19 10:02:43;;;;;;;1.50;1.10;;;24.40;43.90;;;;;;4989040;28;20462;-67
2023/09/19 10:08:08;;;;;;;1.13;1.00;;;24.40;43.80;;;;;;4989671;28;20456;-64
2023/09/19 10:10:53;;;;;;;2.60;1.43;;;24.40;43.80;;;;;;4987729;28;20476;-70
2023/09/19 10:13:23;;;;;;;1.73;1.13;;;24.40;43.80;;;;;;4988224;28;20470;-69
2023/09/19 10:15:51;;;;;;;1.30;1.20;;;24.40;43.70;;;;;;4988321;28;20476;-64
2023/09/19 10:18:29;;;;;;;1.53;1.17;;;24.40;43.70;;;;;;4987403;28;20486;-65
2023/09/19 10:20:56;;;;;;;2.47;1.27;;;24.40;43.60;;;;;;4984751;28;20822;-64
2023/09/19 10:23:23;;;;;;;1.93;1.10;;;24.40;43.50;;;;;;4987349;28;20447;-66
2023/09/19 10:25:50;;;;;;;1.60;1.30;;;24.40;43.40;;;;;;4986943;28;21174;-65
2023/09/19 10:28:21;;;;;;;2.03;1.33;;;24.40;43.30;;;;;;4985151;28;21047;-65
2023/09/19 10:30:49;;;;;;;1.97;1.07;;;24.40;43.30;;;;;;4988455;28;20516;-63
2023/09/19 10:33:17;;;;;;;1.60;1.30;;;24.40;43.30;;;;;;4988308;28;20472;-64
2023/09/19 10:35:44;;;;;;;1.30;1.20;;;24.40;43.10;;;;;;4987266;28;20472;-63
2023/09/19 10:38:11;;;;;;;3.90;1.27;;;24.40;43.10;;;;;;4987773;28;20453;-65
2023/09/19 10:40:42;;;;;;;2.07;1.13;;;24.40;43.10;;;;;;4984530;28;20472;-65
2023/09/19 10:43:18;;;;;;;1.20;1.10;;;24.40;43.10;;;;;;4987242;28;20472;-71
2023/09/19 10:45:46;;;;;;;1.90;1.23;;;24.40;43.10;;;;;;4988636;28;20468;-64
2023/09/19 10:48:12;;;;;;;2.13;1.30;;;24.40;43.10;;;;;;4988195;28;20468;-64
2023/09/19 10:50:52;;;;;;;1.40;1.17;;;24.40;43.10;;;;;;4987148;28;20909;-64
2023/09/19 10:53:19;;;;;;;1.30;1.17;;;24.40;43.10;;;;;;4987593;28;20223;-64
2023/09/19 10:55:55;;;;;;;1.10;1.00;;;24.40;43.10;;;;;;4985613;28;20464;-67
2023/09/19 10:58:28;;;;;;;1.17;1.07;;;24.40;43.10;;;;;;4989004;28;20464;-65
2023/09/19 11:01:12;;;;;;;2.20;1.30;;;24.40;43.10;;;;;;4988289;28;20472;-69
2023/09/19 11:03:43;;;;;;;1.60;1.40;;;24.40;43.10;;;;;;4987025;28;20479;-66
2023/09/19 11:06:18;;;;;;;1.30;1.20;;;24.40;43.10;;;;;;4988492;28;20964;-67
2023/09/19 11:11:39;;;;;;;1.37;1.17;;;24.40;43.10;;;;;;4986130;28;20473;-64
2023/09/19 11:14:15;;;;;;;1.40;1.30;;;24.40;43.10;;;;;;4987706;28;20469;-66
2023/09/19 11:17:11;;;;;;;1.33;1.23;;;24.40;43.10;;;;;;4986940;28;20855;-63
2023/09/19 11:22:49;;;;;;;1.20;1.10;;;24.40;43.10;;;;;;4987195;28;20470;-64
2023/09/19 11:25:47;;;;;;;1.37;1.17;;;24.40;43.10;;;;;;4985002;28;20464;-67
2023/09/19 11:28:15;;;;;;;1.67;1.10;;;24.40;43.10;;;;;;4984791;28;21316;-64
2023/09/19 11:30:45;;;;;;;1.20;1.10;;;24.40;43.10;;;;;;4986487;28;20482;-63
2023/09/19 11:33:32;;;;;;;2.37;1.33;;;24.40;43.10;;;;;;4987879;28;20461;-64
2023/09/19 11:36:03;;;;;;;1.30;1.20;;;24.40;43.10;;;;;;4987648;28;20502;-68
2023/09/19 11:38:44;;;;;;;2.83;1.10;;;24.40;43.10;;;;;;4985988;28;20525;-64
2023/09/19 11:41:29;;;;;;;1.73;1.30;;;24.40;43.10;;;;;;4988840;28;21065;-64
2023/09/19 11:44:03;;;;;;;1.87;1.47;;;24.40;43.10;;;;;;4990892;28;21272;-63
2023/09/19 11:46:31;;;;;;;1.33;1.20;;;24.40;43.10;;;;;;4992194;28;20492;-66
2023/09/19 11:49:15;;;;;;;2.07;1.30;;;24.40;42.90;;;;;;4992303;28;20476;-63
2023/09/19 11:51:45;;;;;;;1.60;1.10;;;24.40;42.90;;;;;;4991068;28;20476;-64
2023/09/19 11:54:18;;;;;;;1.43;1.00;;;24.40;42.80;;;;;;4990048;28;20492;-66
2023/09/19 11:56:50;;;;;;;1.93;1.10;;;24.40;42.70;;;;;;4991102;28;20465;-65
2023/09/19 11:59:30;;;;;;;1.10;1.00;;;24.40;42.60;;;;;;4989924;28;20469;-68
2023/09/19 12:02:03;;;;;;;3.50;1.63;;;24.40;42.50;;;;;;4989024;28;20473;-63
2023/09/19 12:04:38;;;;;;;2.50;1.20;;;24.40;42.40;;;;;;4991047;28;20510;-63
2023/09/19 12:07:16;;;;;;;1.33;1.10;;;24.40;42.40;;;;;;4990165;28;20552;-69
2023/09/19 12:09:44;;;;;;;2.23;1.40;;;24.40;42.30;;;;;;4991616;28;20933;-66
2023/09/19 12:12:12;;;;;;;1.17;1.07;;;24.40;42.30;;;;;;4991052;28;20473;-63
2023/09/19 12:14:39;;;;;;;1.83;1.20;;;24.40;42.30;;;;;;4990169;28;20496;-64
2023/09/19 12:17:04;;;;;;;1.43;1.30;;;24.40;42.20;;;;;;4990115;28;20489;-65
2023/09/19 12:19:30;;;;;;;1.20;1.10;;;24.40;42.10;;;;;;4992297;28;20480;-65
2023/09/19 12:21:57;;;;;;;1.27;1.17;;;24.40;42.10;;;;;;4987699;28;20223;-66
2023/09/19 12:24:26;;;;;;;1.30;1.20;;;24.40;42.10;;;;;;4991463;28;20235;-65
2023/09/19 12:26:52;;;;;;;1.77;1.20;;;24.40;42.00;;;;;;4989583;28;20472;-64
2023/09/19 12:29:19;;;;;;;1.33;1.10;;;24.40;41.90;;;;;;4990126;28;20744;-64
2023/09/19 12:31:57;;;;;;;1.40;1.30;;;24.40;41.90;;;;;;4989488;28;20219;-65
2023/09/19 12:34:27;;;;;;;2.03;1.20;;;24.40;41.90;;;;;;4990784;28;20802;-64
2023/09/19 12:37:15;;;;;;;1.43;1.17;;;24.40;41.80;;;;;;4986430;28;20535;-67
2023/09/19 12:39:48;;;;;;;1.40;1.30;;;24.40;41.70;;;;;;4989284;28;20477;-64
2023/09/19 12:42:15;;;;;;;1.97;1.20;;;24.40;41.80;;;;;;4988262;28;20484;-63
2023/09/19 12:44:43;;;;;;;1.10;1.00;;;24.40;41.70;;;;;;4990164;28;20461;-67
2023/09/19 12:47:17;;;;;;;2.40;1.40;;;24.40;41.60;;;;;;4989142;28;20520;-66
2023/09/19 12:50:06;;;;;;;1.87;1.07;;;24.40;41.70;;;;;;4988236;28;20474;-66
2023/09/19 12:52:38;;;;;;;1.60;1.10;;;24.40;41.50;;;;;;4991178;28;20845;-64
2023/09/19 12:55:08;;;;;;;1.47;1.10;;;24.40;41.40;;;;;;4990096;28;20465;-64
2023/09/19 12:57:34;;;;;;;1.50;1.30;;;24.40;41.30;;;;;;4991624;28;20461;-69
2023/09/19 13:00:10;;;;;;;2.07;1.10;;;24.40;41.30;;;;;;4990471;28;20832;-65
2023/09/19 13:02:36;;;;;;;1.43;1.20;;;24.40;41.20;;;;;;4992510;28;20522;-65
2023/09/19 13:05:06;;;;;;;1.77;1.13;;;24.40;41.20;;;;;;4988909;28;20472;-63
2023/09/19 13:07:47;;;;;;;1.10;1.00;;;24.40;41.10;;;;;;4990473;28;20358;-64
2023/09/19 13:10:16;;;;;;;1.10;1.00;;;24.40;41.00;;;;;;4989639;28;20499;-66
2023/09/19 13:12:47;;;;;;;1.20;0.90;;;24.40;41.00;;;;;;4990018;28;20465;-66
2023/09/19 13:15:19;;;;;;;1.57;1.30;;;24.40;41.00;;;;;;4989614;28;20544;-69